Time;durP1;ratioP1;P1;durP2;ratioP2;P2;SDS_P1;SDS_P2;PMS_P1;PMS_P2;Temp;Humidity;BMP_temperature;BMP_pressure;BME280_temperature;BME280_humidity;BME280_pressure;Samples;Min_cycle;Max_cycle;Signal;HPM_P1;HPM_P2
2022/08/31 00:05:46;;;;;;;1.27;1.00;;;11.00;75.50;;;;;;5019009;28;20235;-92
2022/08/31 00:08:12;;;;;;;1.43;1.30;;;11.00;76.60;;;;;;5017060;28;20636;-92
2022/08/31 00:10:40;;;;;;;1.00;0.90;;;11.00;76.60;;;;;;5017956;28;20535;-92
2022/08/31 00:13:07;;;;;;;1.27;1.10;;;10.90;76.80;;;;;;5018218;28;20182;-92
2022/08/31 00:15:33;;;;;;;1.40;1.07;;;10.90;77.00;;;;;;5016360;28;20185;-92
2022/08/31 00:17:59;;;;;;;2.30;1.20;;;10.90;77.20;;;;;;5017789;28;20201;-92
2022/08/31 00:20:27;;;;;;;2.10;1.10;;;10.80;77.10;;;;;;5019609;28;20643;-92
2022/08/31 00:22:53;;;;;;;1.40;1.30;;;10.90;77.00;;;;;;5019027;28;20525;-92
2022/08/31 00:25:19;;;;;;;1.47;1.13;;;10.90;76.90;;;;;;5018290;28;20179;-92
2022/08/31 00:27:45;;;;;;;1.40;1.30;;;10.90;76.80;;;;;;5017586;28;20303;-92
2022/08/31 00:30:12;;;;;;;1.97;1.20;;;10.90;76.70;;;;;;5017985;28;20178;-92
2022/08/31 00:32:38;;;;;;;1.10;1.00;;;10.80;76.60;;;;;;5018069;28;20177;-92
2022/08/31 00:35:05;;;;;;;2.33;1.13;;;10.80;76.50;;;;;;5017633;28;20216;-92
2022/08/31 00:37:32;;;;;;;3.03;1.20;;;10.80;76.40;;;;;;5015810;28;20219;-92
2022/08/31 00:39:58;;;;;;;6.03;1.30;;;10.80;76.30;;;;;;5016240;28;20181;-92
2022/08/31 00:42:23;;;;;;;1.20;1.00;;;10.80;76.30;;;;;;5017254;28;20184;-92
2022/08/31 00:44:49;;;;;;;2.00;1.30;;;10.80;76.20;;;;;;5016695;28;20644;-92
2022/08/31 00:47:15;;;;;;;3.73;1.17;;;10.80;76.20;;;;;;5016316;28;20209;-91
2022/08/31 00:49:45;;;;;;;4.73;1.33;;;10.70;76.40;;;;;;5015978;28;20203;-92
2022/08/31 00:52:15;;;;;;;2.47;2.27;;;10.70;76.40;;;;;;5015717;28;20184;-92
2022/08/31 00:54:42;;;;;;;1.63;1.07;;;10.70;76.50;;;;;;5014866;28;20227;-92
2022/08/31 00:57:09;;;;;;;4.03;1.37;;;10.70;76.30;;;;;;5015192;28;20201;-92
2022/08/31 00:59:37;;;;;;;2.53;1.23;;;10.70;76.30;;;;;;5015252;28;20243;-92
2022/08/31 01:02:06;;;;;;;4.10;1.00;;;10.70;76.30;;;;;;5015459;28;20674;-92
2022/08/31 01:04:32;;;;;;;4.90;1.20;;;10.70;76.30;;;;;;5016311;28;20212;-92
2022/08/31 01:06:58;;;;;;;2.23;1.33;;;10.70;76.20;;;;;;5016256;28;20728;-91
2022/08/31 01:09:27;;;;;;;3.07;1.23;;;10.70;76.20;;;;;;5017601;28;20264;-93
2022/08/31 01:11:53;;;;;;;1.73;1.60;;;10.70;76.20;;;;;;5016170;28;20199;-92
2022/08/31 01:14:20;;;;;;;2.53;1.20;;;10.60;76.20;;;;;;5016382;28;20699;-92
2022/08/31 01:16:52;;;;;;;2.00;1.40;;;10.60;76.40;;;;;;5014717;28;20733;-93
2022/08/31 01:19:27;;;;;;;4.43;1.50;;;10.50;76.80;;;;;;5015447;28;20181;-92
2022/08/31 01:21:59;;;;;;;1.70;1.40;;;10.50;77.30;;;;;;5016586;28;20227;-92
2022/08/31 01:24:26;;;;;;;3.83;1.33;;;10.40;77.40;;;;;;5015241;28;20173;-92
2022/08/31 01:26:53;;;;;;;1.83;1.50;;;10.40;77.80;;;;;;5014673;28;20205;-92
2022/08/31 01:29:19;;;;;;;3.50;1.20;;;10.30;78.00;;;;;;5013663;28;20173;-93
2022/08/31 01:31:46;;;;;;;2.57;1.67;;;10.30;77.80;;;;;;5013748;28;20174;-92
2022/08/31 01:34:13;;;;;;;1.63;1.37;;;10.30;77.70;;;;;;5013537;28;20180;-92
2022/08/31 01:36:41;;;;;;;4.10;1.57;;;10.30;77.80;;;;;;5013607;28;20251;-92
2022/08/31 01:39:09;;;;;;;3.40;1.60;;;10.30;77.90;;;;;;5014775;28;20193;-92
2022/08/31 01:41:40;;;;;;;7.30;1.60;;;10.30;78.10;;;;;;5013528;28;20177;-91
2022/08/31 01:44:06;;;;;;;4.07;1.37;;;10.20;78.10;;;;;;5013663;28;20261;-91
2022/08/31 01:46:32;;;;;;;1.47;1.37;;;10.20;78.20;;;;;;5013837;28;20289;-91
2022/08/31 01:48:58;;;;;;;3.97;1.60;;;10.20;78.30;;;;;;5015980;28;20178;-92
2022/08/31 01:51:24;;;;;;;1.93;1.60;;;10.20;78.50;;;;;;5017997;28;20179;-91
2022/08/31 01:53:52;;;;;;;2.70;1.83;;;10.10;78.60;;;;;;5017118;28;20260;-92
2022/08/31 01:56:29;;;;;;;2.23;1.47;;;10.10;78.50;;;;;;5017108;28;20204;-91
2022/08/31 01:58:55;;;;;;;1.53;1.43;;;10.10;78.40;;;;;;5017337;28;20173;-91
2022/08/31 02:01:26;;;;;;;1.57;1.43;;;10.10;78.30;;;;;;5016865;28;20196;-91
2022/08/31 02:03:51;;;;;;;2.20;1.73;;;10.10;78.30;;;;;;5018843;28;20168;-91
2022/08/31 02:06:17;;;;;;;1.57;1.37;;;10.10;78.30;;;;;;5017555;28;20216;-92
2022/08/31 02:08:42;;;;;;;1.50;1.40;;;10.10;78.30;;;;;;5017566;28;20273;-92
2022/08/31 02:11:08;;;;;;;2.07;1.70;;;10.00;78.30;;;;;;5017562;28;20178;-91
2022/08/31 02:13:34;;;;;;;2.83;1.43;;;10.00;78.50;;;;;;5016901;28;20657;-92
2022/08/31 02:16:00;;;;;;;2.23;1.60;;;10.00;78.40;;;;;;5017505;28;20185;-92
2022/08/31 02:18:26;;;;;;;2.10;1.50;;;10.00;78.40;;;;;;5017431;28;20211;-92
2022/08/31 02:20:52;;;;;;;2.37;1.50;;;10.00;78.30;;;;;;5019883;28;20188;-91
2022/08/31 02:23:18;;;;;;;1.57;1.43;;;10.00;78.20;;;;;;5017486;28;20283;-91
2022/08/31 02:25:45;;;;;;;2.13;1.50;;;10.00;78.20;;;;;;5017047;28;20221;-91
2022/08/31 02:28:12;;;;;;;1.70;1.50;;;10.00;78.10;;;;;;5016743;28;20228;-91
2022/08/31 02:30:39;;;;;;;3.33;1.50;;;10.00;78.10;;;;;;5016628;28;20651;-91
2022/08/31 02:33:04;;;;;;;2.37;1.70;;;10.00;78.20;;;;;;5016564;28;20173;-91
2022/08/31 02:35:30;;;;;;;1.90;1.70;;;10.00;78.30;;;;;;5016860;28;20177;-91
2022/08/31 02:37:56;;;;;;;1.47;1.37;;;9.90;78.50;;;;;;5016524;28;20548;-92
2022/08/31 02:40:21;;;;;;;1.60;1.50;;;9.90;78.70;;;;;;5017511;28;20177;-92
2022/08/31 02:42:47;;;;;;;1.50;1.40;;;9.80;78.90;;;;;;5016525;28;20303;-91
2022/08/31 02:45:13;;;;;;;1.67;1.50;;;9.80;79.20;;;;;;5016593;28;20185;-91
2022/08/31 02:47:38;;;;;;;4.27;1.70;;;9.90;79.10;;;;;;5016266;28;20209;-91
2022/08/31 02:50:06;;;;;;;2.03;1.40;;;9.90;79.00;;;;;;5017800;28;20533;-91
2022/08/31 02:52:31;;;;;;;2.90;1.57;;;9.80;79.30;;;;;;5016364;28;20185;-91
2022/08/31 02:54:57;;;;;;;3.17;1.50;;;9.80;79.60;;;;;;5017504;28;20177;-91
2022/08/31 02:57:23;;;;;;;1.53;1.30;;;9.80;79.80;;;;;;5016855;28;20690;-91
2022/08/31 02:59:48;;;;;;;2.67;1.60;;;9.80;79.80;;;;;;5015607;28;20264;-91
2022/08/31 03:02:14;;;;;;;1.60;1.50;;;9.80;79.90;;;;;;5016525;28;20177;-91
2022/08/31 03:04:40;;;;;;;1.57;1.47;;;9.80;79.80;;;;;;5016372;28;20189;-92
2022/08/31 03:07:06;;;;;;;3.70;1.40;;;9.80;79.90;;;;;;5015868;28;20227;-91
2022/08/31 03:09:31;;;;;;;2.23;1.67;;;9.70;79.80;;;;;;5016636;28;20173;-92
2022/08/31 03:11:58;;;;;;;2.03;1.50;;;9.70;79.70;;;;;;5016182;28;20193;-92
2022/08/31 03:14:25;;;;;;;4.37;1.50;;;9.70;79.80;;;;;;5016237;28;20173;-92
2022/08/31 03:16:51;;;;;;;1.40;1.30;;;9.70;79.80;;;;;;5016584;28;20201;-92
2022/08/31 03:19:17;;;;;;;3.03;1.50;;;9.80;79.70;;;;;;5016335;28;20177;-92
2022/08/31 03:21:44;;;;;;;2.23;1.57;;;9.70;79.60;;;;;;5015342;28;20243;-92
2022/08/31 03:24:10;;;;;;;2.50;1.50;;;9.70;79.50;;;;;;5016511;28;20178;-92
2022/08/31 03:26:35;;;;;;;2.93;1.57;;;9.70;79.40;;;;;;5015278;28;20223;-92
2022/08/31 03:29:01;;;;;;;1.43;1.33;;;9.70;79.30;;;;;;5015796;28;20176;-92
2022/08/31 03:31:27;;;;;;;2.80;1.50;;;9.70;79.30;;;;;;5016230;28;20177;-93
2022/08/31 03:33:52;;;;;;;1.60;1.50;;;9.60;79.20;;;;;;5016698;28;20173;-92
2022/08/31 03:36:18;;;;;;;2.80;1.63;;;9.50;79.20;;;;;;5016618;28;20193;-92
2022/08/31 03:38:44;;;;;;;3.90;1.73;;;9.60;79.20;;;;;;5015969;28;20220;-92
2022/08/31 03:41:12;;;;;;;2.60;1.43;;;9.50;79.10;;;;;;5015834;28;20193;-91
2022/08/31 03:43:38;;;;;;;1.77;1.57;;;9.60;79.00;;;;;;5015805;28;20183;-91
2022/08/31 03:46:04;;;;;;;2.63;1.70;;;9.50;78.90;;;;;;5015962;28;20307;-91
2022/08/31 03:48:32;;;;;;;1.83;1.57;;;9.50;78.80;;;;;;5015608;28;20173;-91
2022/08/31 03:50:58;;;;;;;3.13;1.73;;;9.50;78.90;;;;;;5016309;28;20235;-91
2022/08/31 03:53:23;;;;;;;2.20;1.60;;;9.40;79.00;;;;;;5015759;28;20643;-91
2022/08/31 03:55:49;;;;;;;2.00;1.63;;;9.40;78.90;;;;;;5015299;28;20187;-91
2022/08/31 03:58:15;;;;;;;1.60;1.50;;;9.40;79.00;;;;;;5015787;28;20178;-91
2022/08/31 04:00:45;;;;;;;2.23;2.00;;;9.40;79.00;;;;;;5015289;28;20207;-91
2022/08/31 04:03:10;;;;;;;2.23;2.03;;;9.30;79.00;;;;;;5015747;28;20269;-91
2022/08/31 04:05:42;;;;;;;2.10;1.80;;;9.30;79.00;;;;;;5016045;28;20625;-91
2022/08/31 04:08:08;;;;;;;3.03;1.97;;;9.30;79.10;;;;;;5016314;28;20260;-91
2022/08/31 04:10:34;;;;;;;2.20;1.93;;;9.30;79.90;;;;;;5015577;28;20173;-91
2022/08/31 04:12:59;;;;;;;4.87;2.00;;;9.30;79.90;;;;;;5015327;28;20264;-91
2022/08/31 04:15:25;;;;;;;4.23;1.80;;;9.20;79.90;;;;;;5015767;28;20177;-92
2022/08/31 04:17:50;;;;;;;2.63;2.03;;;9.20;80.00;;;;;;5015551;28;20197;-92
2022/08/31 04:20:16;;;;;;;2.90;1.83;;;9.20;80.00;;;;;;5015967;28;20174;-92
2022/08/31 04:22:42;;;;;;;3.77;2.33;;;9.20;80.00;;;;;;5016087;28;20178;-92
2022/08/31 04:25:09;;;;;;;3.13;2.00;;;9.20;79.90;;;;;;5015372;28;20196;-91
2022/08/31 04:27:37;;;;;;;4.70;2.07;;;9.10;79.90;;;;;;5014378;28;20281;-91
2022/08/31 04:30:05;;;;;;;2.07;1.87;;;9.10;79.90;;;;;;5014470;28;20648;-92
2022/08/31 04:32:30;;;;;;;2.97;2.10;;;9.10;79.80;;;;;;5015166;28;20189;-91
2022/08/31 04:34:57;;;;;;;2.73;1.93;;;9.10;79.80;;;;;;5015174;28;20201;-91
2022/08/31 04:37:22;;;;;;;4.40;2.00;;;9.10;79.80;;;;;;5014037;28;20633;-91
2022/08/31 04:39:48;;;;;;;1.97;1.87;;;9.10;79.80;;;;;;5013321;28;20232;-91
2022/08/31 04:42:13;;;;;;;8.23;2.07;;;9.10;79.90;;;;;;5013562;28;20190;-91
2022/08/31 04:44:39;;;;;;;2.53;1.90;;;9.30;80.10;;;;;;5017411;28;20235;-92
2022/08/31 04:47:05;;;;;;;3.17;2.17;;;9.40;80.20;;;;;;5017314;28;20594;-91
2022/08/31 04:49:33;;;;;;;2.47;1.93;;;9.70;80.10;;;;;;5023785;28;20272;-93
2022/08/31 04:51:59;;;;;;;4.83;2.10;;;10.00;79.70;;;;;;5019459;28;20303;-92
2022/08/31 04:54:25;;;;;;;7.17;2.00;;;10.20;79.20;;;;;;5015692;28;20189;-90
2022/08/31 04:56:50;;;;;;;2.00;1.87;;;10.40;78.90;;;;;;5016118;28;20197;-91
2022/08/31 04:59:17;;;;;;;2.20;1.93;;;10.70;78.40;;;;;;5019211;28;20186;-92
2022/08/31 05:01:46;;;;;;;4.40;2.20;;;10.80;78.10;;;;;;5014994;28;20180;-93
2022/08/31 05:04:27;;;;;;;7.63;2.40;;;10.90;77.80;;;;;;5013729;28;20188;-91
2022/08/31 05:06:56;;;;;;;4.23;2.40;;;10.90;78.30;;;;;;5028259;28;20224;-94
2022/08/31 05:09:23;;;;;;;2.23;2.03;;;10.90;80.50;;;;;;5035429;28;20173;-92
2022/08/31 05:11:50;;;;;;;3.67;2.63;;;10.80;81.50;;;;;;5024731;28;20157;-91
2022/08/31 05:14:16;;;;;;;3.33;2.30;;;10.80;82.30;;;;;;5015424;28;20177;-93
2022/08/31 05:16:43;;;;;;;5.50;2.33;;;10.80;82.90;;;;;;5014736;28;20181;-91
2022/08/31 05:19:11;;;;;;;4.10;2.23;;;10.70;83.30;;;;;;5022607;28;20200;-91
2022/08/31 05:21:42;;;;;;;5.40;3.07;;;10.70;83.90;;;;;;5027396;28;20193;-92
2022/08/31 05:24:17;;;;;;;5.63;2.40;;;10.80;84.50;;;;;;5021970;28;20231;-91
2022/08/31 05:26:48;;;;;;;4.47;2.60;;;10.80;84.80;;;;;;5020952;28;20265;-91
2022/08/31 05:29:17;;;;;;;3.03;2.70;;;10.80;85.10;;;;;;5021415;28;20157;-92
2022/08/31 05:31:43;;;;;;;6.17;2.50;;;10.80;85.40;;;;;;5020495;28;20223;-91
2022/08/31 05:34:11;;;;;;;2.40;2.27;;;10.90;85.80;;;;;;5018999;28;20177;-89
2022/08/31 05:36:41;;;;;;;4.70;2.60;;;11.00;86.10;;;;;;5018626;28;20204;-91
2022/08/31 05:39:10;;;;;;;13.83;2.90;;;11.00;86.30;;;;;;5018721;28;20250;-90
2022/08/31 05:41:36;;;;;;;5.40;2.60;;;;;;;;;;5018683;28;20187;-90
2022/08/31 05:44:04;;;;;;;2.90;2.60;;;11.20;86.70;;;;;;5018522;28;20180;-90
2022/08/31 05:46:29;;;;;;;4.80;2.80;;;11.30;86.90;;;;;;5018379;28;20213;-88
2022/08/31 05:48:55;;;;;;;15.53;3.10;;;11.30;87.10;;;;;;5018891;28;20231;-91
2022/08/31 05:51:31;;;;;;;3.27;2.63;;;11.40;87.20;;;;;;5027349;28;20181;-93
2022/08/31 05:54:00;;;;;;;3.83;3.07;;;11.60;87.30;;;;;;5022066;28;20231;-92
2022/08/31 05:56:26;;;;;;;4.93;2.43;;;11.60;87.30;;;;;;5020662;28;20201;-89
2022/08/31 05:58:55;;;;;;;4.03;2.40;;;11.70;87.40;;;;;;5024114;28;20208;-92
2022/08/31 06:01:25;;;;;;;4.77;2.40;;;11.80;87.50;;;;;;5021430;28;20173;-88
2022/08/31 06:03:53;;;;;;;6.27;2.30;;;11.90;87.40;;;;;;5023499;28;20188;-88
2022/08/31 06:06:18;;;;;;;6.37;2.63;;;12.00;87.40;;;;;;5022826;28;20300;-89
2022/08/31 06:08:44;;;;;;;3.33;2.60;;;12.10;87.20;;;;;;5022991;28;20259;-89
2022/08/31 06:11:14;;;;;;;3.90;3.47;;;12.20;87.20;;;;;;5018811;28;20173;-89
2022/08/31 06:13:40;;;;;;;4.40;2.30;;;12.20;87.00;;;;;;5019490;28;20170;-89
2022/08/31 06:16:07;;;;;;;4.17;2.27;;;12.30;87.10;;;;;;5019042;28;20251;-89
2022/08/31 06:18:32;;;;;;;4.03;2.33;;;12.30;87.10;;;;;;5018642;28;20178;-89
2022/08/31 06:21:08;;;;;;;3.53;2.10;;;12.50;87.20;;;;;;5020007;28;20663;-91
2022/08/31 06:23:35;;;;;;;3.63;2.10;;;12.60;87.30;;;;;;5022528;28;20179;-88
2022/08/31 06:26:06;;;;;;;2.73;2.27;;;12.80;87.20;;;;;;5023356;28;20204;-89
2022/08/31 06:28:33;;;;;;;2.87;2.17;;;12.80;87.10;;;;;;5023340;28;20288;-89
2022/08/31 06:31:10;;;;;;;5.70;2.23;;;13.00;87.10;;;;;;5025465;28;20173;-91
2022/08/31 06:33:38;;;;;;;3.93;2.30;;;13.10;86.90;;;;;;5025189;28;20181;-91
2022/08/31 06:36:09;;;;;;;3.40;2.20;;;13.20;86.80;;;;;;5025949;28;20181;-89
2022/08/31 06:38:35;;;;;;;2.30;2.07;;;13.30;86.50;;;;;;5018277;28;20244;-91
2022/08/31 06:41:01;;;;;;;4.63;2.30;;;13.40;86.10;;;;;;5016648;28;20193;-86
2022/08/31 06:43:27;;;;;;;4.97;2.23;;;13.60;86.00;;;;;;5017507;28;20204;-89
2022/08/31 06:45:56;;;;;;;4.60;2.17;;;13.60;86.00;;;;;;5015497;28;20225;-90
2022/08/31 06:48:22;;;;;;;4.53;2.13;;;13.80;86.10;;;;;;5016744;28;20268;-91
2022/08/31 06:50:55;;;;;;;4.00;2.20;;;13.90;85.80;;;;;;5016948;28;20201;-90
2022/08/31 06:53:21;;;;;;;3.33;2.03;;;13.90;85.60;;;;;;5016914;28;20212;-90
2022/08/31 06:55:47;;;;;;;4.53;2.30;;;14.00;85.60;;;;;;5016697;28;20546;-90
2022/08/31 06:58:13;;;;;;;3.33;2.20;;;14.10;85.60;;;;;;5017185;28;20177;-88
2022/08/31 07:00:39;;;;;;;4.30;1.93;;;14.30;85.30;;;;;;5019474;28;20181;-89
2022/08/31 07:03:21;;;;;;;2.97;2.10;;;14.40;85.30;;;;;;5022084;28;20184;-88
2022/08/31 07:05:48;;;;;;;3.75;1.80;;;14.60;85.30;;;;;;5021325;28;20201;-91
2022/08/31 07:08:13;;;;;;;1.40;1.30;;;14.70;85.20;;;;;;5020437;28;20398;-89
2022/08/31 07:10:39;;;;;;;3.23;2.70;;;14.90;85.10;;;;;;5020294;28;20212;-90
2022/08/31 07:13:05;;;;;;;5.07;2.17;;;15.10;84.80;;;;;;5018189;28;20188;-90
2022/08/31 07:15:30;;;;;;;2.03;1.87;;;15.10;84.20;;;;;;5028602;28;20185;-90
2022/08/31 07:17:56;;;;;;;3.00;1.87;;;15.20;84.10;;;;;;5022348;28;20231;-89
2022/08/31 07:20:22;;;;;;;2.97;1.87;;;15.30;83.80;;;;;;5024187;28;20185;-89
2022/08/31 07:22:47;;;;;;;1.50;1.40;;;15.40;83.60;;;;;;5022339;28;20197;-91
2022/08/31 07:25:14;;;;;;;3.03;1.60;;;15.50;83.50;;;;;;5022157;28;20192;-91
2022/08/31 07:27:39;;;;;;;2.40;1.60;;;15.70;83.50;;;;;;5020901;28;20189;-89
2022/08/31 07:30:06;;;;;;;2.70;1.60;;;15.80;82.70;;;;;;5019141;28;20702;-89
2022/08/31 07:32:32;;;;;;;1.63;1.30;;;15.90;82.70;;;;;;5027719;28;20177;-91
2022/08/31 07:34:57;;;;;;;1.92;1.33;;;16.00;82.20;;;;;;5026052;28;20193;-90
2022/08/31 07:42:54;;;;;;;1.02;0.90;;;16.30;79.80;;;;;;5015671;28;20235;-86
2022/08/31 07:45:21;;;;;;;1.38;0.90;;;16.50;79.20;;;;;;5013913;28;20177;-88
2022/08/31 07:47:48;;;;;;;2.13;1.30;;;16.60;78.20;;;;;;5013624;28;20212;-86
2022/08/31 07:50:15;;;;;;;2.15;1.50;;;16.80;78.10;;;;;;5015171;28;20597;-85
2022/08/31 07:52:46;;;;;;;2.10;1.10;;;16.90;77.30;;;;;;5013598;28;20173;-85
2022/08/31 07:55:12;;;;;;;1.60;1.00;;;17.00;77.10;;;;;;5014995;28;20208;-86
2022/08/31 07:57:42;;;;;;;1.30;1.17;;;17.10;76.60;;;;;;5014869;28;20228;-85
2022/08/31 08:00:09;;;;;;;1.63;1.05;;;17.10;76.30;;;;;;5014902;28;20150;-86
2022/08/31 08:02:38;;;;;;;1.40;1.25;;;17.20;76.20;;;;;;5015080;28;20179;-86
2022/08/31 08:05:09;;;;;;;1.45;1.27;;;17.30;75.80;;;;;;5013790;28;20180;-86
2022/08/31 08:07:37;;;;;;;1.23;1.00;;;17.50;75.70;;;;;;5013346;28;20297;-87
2022/08/31 08:10:05;;;;;;;3.45;0.88;;;17.70;76.20;;;;;;5013505;28;20647;-86
2022/08/31 08:12:35;;;;;;;2.20;0.90;;;17.60;74.90;;;;;;5013430;28;20181;-86
2022/08/31 08:15:05;;;;;;;1.17;0.80;;;17.80;76.20;;;;;;5013732;28;20236;-86
2022/08/31 08:17:31;;;;;;;1.45;0.90;;;17.90;75.10;;;;;;5013373;28;20201;-87
2022/08/31 08:19:57;;;;;;;1.77;1.40;;;17.90;73.90;;;;;;5291349;22;20762;-90
2022/08/31 08:22:23;;;;;;;2.78;1.05;;;17.90;73.80;;;;;;4999775;28;20181;-91
2022/08/31 08:24:53;;;;;;;2.55;1.10;;;18.00;73.80;;;;;;5005650;28;20197;-92
2022/08/31 08:27:19;;;;;;;2.83;0.98;;;18.00;74.00;;;;;;5220592;23;20236;-93
2022/08/31 08:29:48;;;;;;;1.17;1.00;;;18.10;73.50;;;;;;5010158;28;20233;-91
2022/08/31 08:32:14;;;;;;;1.95;1.10;;;18.20;72.90;;;;;;5010575;28;20173;-92
2022/08/31 08:34:46;;;;;;;1.65;0.90;;;18.30;73.00;;;;;;5008734;28;20180;-91
2022/08/31 08:37:13;;;;;;;2.17;1.00;;;18.30;73.20;;;;;;5007855;28;20572;-92
2022/08/31 08:39:41;;;;;;;4.22;0.80;;;18.40;72.50;;;;;;5005080;28;20582;-92
2022/08/31 08:42:13;;;;;;;1.20;0.90;;;18.50;72.60;;;;;;5011075;28;20208;-92
2022/08/31 08:44:39;;;;;;;1.33;0.93;;;18.50;71.50;;;;;;5008297;28;20231;-91
2022/08/31 08:47:13;;;;;;;3.05;1.00;;;18.60;72.10;;;;;;5001191;28;20259;-91
2022/08/31 08:49:48;;;;;;;7.18;1.98;;;18.70;72.50;;;;;;4998992;28;20165;-91
2022/08/31 08:52:40;;;;;;;1.42;1.20;;;18.80;72.00;;;;;;5003530;28;20169;-91
2022/08/31 08:55:18;;;;;;;2.15;0.90;;;18.90;70.00;;;;;;4996500;28;20162;-89
2022/08/31 08:57:46;;;;;;;3.78;0.88;;;19.10;70.10;;;;;;4996308;28;20201;-89
2022/08/31 09:00:16;;;;;;;1.05;0.85;;;19.20;69.10;;;;;;5008135;28;20244;-92
2022/08/31 09:03:00;;;;;;;1.95;1.10;;;19.20;67.60;;;;;;5006278;28;20644;-90
2022/08/31 09:05:52;;;;;;;1.42;0.85;;;19.20;68.10;;;;;;5016722;28;20153;-92
2022/08/31 09:08:40;;;;;;;1.70;1.00;;;19.20;67.10;;;;;;4999368;28;20181;-92
2022/08/31 09:11:29;;;;;;;2.42;0.98;;;19.30;67.20;;;;;;5000954;28;20166;-91
2022/08/31 09:14:18;;;;;;;1.17;0.82;;;19.30;65.40;;;;;;4997418;28;20177;-91
2022/08/31 09:17:15;;;;;;;3.10;0.80;;;19.50;65.60;;;;;;4998310;28;20684;-91
2022/08/31 09:19:59;;;;;;;1.92;1.20;;;19.50;65.70;;;;;;4998806;28;20172;-90
2022/08/31 09:30:43;;;;;;;1.02;0.75;;;19.30;66.20;;;;;;5072632;22;20248;-93
2022/08/31 09:35:55;;;;;;;0.70;0.70;;;19.30;65.40;;;;;;5217749;23;20239;-94
2022/08/31 09:38:39;;;;;;;0.95;0.60;;;19.30;64.00;;;;;;4999665;28;20181;-93
2022/08/31 09:41:36;;;;;;;1.23;0.80;;;19.30;62.90;;;;;;5000077;28;20182;-93
2022/08/31 09:44:30;;;;;;;1.95;1.00;;;19.30;62.70;;;;;;4993324;28;20183;-93
2022/08/31 10:31:55;;;;;;;0.85;0.57;;;20.90;52.30;;;;;;5072120;28;20207;-92
2022/08/31 10:37:53;;;;;;;0.98;0.60;;;20.70;53.50;;;;;;5067314;28;20211;-91
2022/08/31 10:40:28;;;;;;;1.30;0.60;;;20.50;53.80;;;;;;5010924;28;20665;-91
2022/08/31 10:43:16;;;;;;;1.38;0.70;;;20.70;52.50;;;;;;5044177;28;20171;-91
2022/08/31 10:45:45;;;;;;;0.85;0.60;;;20.70;52.90;;;;;;5048556;28;20175;-92
2022/08/31 10:48:11;;;;;;;6.03;0.60;;;20.90;50.80;;;;;;5043993;28;20204;-91
2022/08/31 10:51:04;;;;;;;1.00;0.73;;;21.20;53.20;;;;;;5051704;28;20176;-92
2022/08/31 10:53:58;;;;;;;2.05;0.80;;;21.50;51.50;;;;;;5051884;28;20156;-93
2022/08/31 10:56:57;;;;;;;1.80;0.77;;;21.80;47.20;;;;;;5055760;28;20192;-91
2022/08/31 11:00:00;;;;;;;0.45;0.45;;;22.10;47.20;;;;;;5038673;28;20569;-90
2022/08/31 11:49:56;;;;;;;0.70;0.70;;;22.40;44.10;;;;;;5117248;23;20236;-92
2022/08/31 11:53:00;;;;;;;1.98;0.90;;;22.50;44.50;;;;;;5083295;23;20328;-94
2022/08/31 11:55:58;;;;;;;0.80;0.60;;;22.60;46.70;;;;;;5443441;23;21064;-92
2022/08/31 11:58:31;;;;;;;1.27;0.60;;;22.60;43.50;;;;;;5020626;28;20186;-92
2022/08/31 12:01:30;;;;;;;1.52;0.90;;;22.20;43.60;;;;;;5007431;28;20161;-91
2022/08/31 12:04:03;;;;;;;4.13;1.55;;;22.00;44.80;;;;;;4997218;28;20235;-92
2022/08/31 12:06:32;;;;;;;7.35;6.65;;;21.70;44.50;;;;;;5002924;28;20307;-93
2022/08/31 12:09:09;;;;;;;1.55;0.90;;;21.80;45.70;;;;;;5000210;28;20184;-90
2022/08/31 12:12:05;;;;;;;0.85;0.80;;;21.80;46.30;;;;;;5001733;28;20173;-92
2022/08/31 12:14:31;;;;;;;1.05;0.65;;;22.00;44.40;;;;;;4996814;28;20651;-92
2022/08/31 12:17:21;;;;;;;3.60;0.80;;;22.00;45.90;;;;;;4998692;28;20205;-92
2022/08/31 12:20:16;;;;;;;0.60;0.60;;;22.20;44.40;;;;;;5000002;28;20216;-92
2022/08/31 12:23:39;;;;;;;3.83;3.15;;;22.40;45.70;;;;;;4967650;28;20191;-92
2022/08/31 12:26:29;;;;;;;0.82;0.80;;;22.30;44.30;;;;;;5000328;28;20205;-92
2022/08/31 12:29:16;;;;;;;1.15;0.73;;;22.20;44.80;;;;;;5003766;28;20710;-92
2022/08/31 12:32:08;;;;;;;2.20;1.35;;;22.70;43.20;;;;;;5020802;28;20741;-92
2022/08/31 12:34:46;;;;;;;2.38;0.80;;;22.40;43.10;;;;;;5019691;28;20256;-91
2022/08/31 12:37:23;;;;;;;1.95;0.63;;;22.50;44.60;;;;;;5007346;28;20223;-93
2022/08/31 12:40:09;;;;;;;3.80;0.73;;;22.60;44.10;;;;;;5007830;28;20539;-92
2022/08/31 12:42:56;;;;;;;3.72;1.40;;;22.30;44.00;;;;;;5009573;28;20726;-91
2022/08/31 12:45:50;;;;;;;0.70;0.70;;;22.00;43.40;;;;;;4997959;28;20173;-90
2022/08/31 12:48:40;;;;;;;1.08;0.70;;;21.80;45.00;;;;;;5014767;28;20247;-91
2022/08/31 12:51:33;;;;;;;2.88;0.60;;;21.60;43.10;;;;;;4997473;28;20176;-92
2022/08/31 12:54:04;;;;;;;1.92;0.90;;;22.00;42.70;;;;;;4999241;28;20174;-91
2022/08/31 12:56:42;;;;;;;1.45;0.90;;;22.40;43.00;;;;;;4999513;28;20247;-90
2022/08/31 12:59:26;;;;;;;0.90;0.70;;;22.60;41.60;;;;;;5001534;28;20178;-92
2022/08/31 13:01:52;;;;;;;1.40;0.70;;;22.90;41.70;;;;;;5001643;28;20229;-92
2022/08/31 13:04:20;;;;;;;1.15;1.00;;;22.90;41.30;;;;;;5000605;28;20182;-91
2022/08/31 13:06:47;;;;;;;1.90;1.02;;;22.60;41.30;;;;;;5003472;28;20212;-92
2022/08/31 13:09:29;;;;;;;1.30;0.70;;;22.70;39.90;;;;;;5016234;28;20173;-91
2022/08/31 13:11:58;;;;;;;3.22;0.88;;;22.90;39.00;;;;;;5017705;28;20168;-91
2022/08/31 13:14:50;;;;;;;2.70;0.80;;;23.20;40.10;;;;;;5001484;28;20177;-91
2022/08/31 13:17:20;;;;;;;0.63;0.57;;;23.60;38.10;;;;;;5013288;28;20232;-91
2022/08/31 13:20:06;;;;;;;3.35;0.98;;;23.70;39.30;;;;;;5001721;28;20177;-92
2022/08/31 13:22:42;;;;;;;1.90;0.77;;;24.20;38.80;;;;;;5000772;28;20191;-91
2022/08/31 13:25:34;;;;;;;1.48;1.05;;;24.20;38.80;;;;;;5001402;28;20184;-92
2022/08/31 13:28:21;;;;;;;1.23;0.80;;;24.00;39.80;;;;;;5003348;28;20212;-92
2022/08/31 13:31:00;;;;;;;2.20;0.98;;;23.90;38.20;;;;;;5003667;28;20188;-90
2022/08/31 13:33:31;;;;;;;6.07;0.90;;;23.70;38.60;;;;;;5016764;28;20180;-90
2022/08/31 13:36:05;;;;;;;0.98;0.85;;;23.90;37.60;;;;;;5020104;28;20158;-90
2022/08/31 13:38:41;;;;;;;1.10;0.90;;;23.70;38.40;;;;;;5026250;28;20226;-92
2022/08/31 13:41:21;;;;;;;1.15;0.80;;;23.70;39.20;;;;;;5008572;28;20252;-92
2022/08/31 13:43:57;;;;;;;1.80;1.10;;;23.30;39.40;;;;;;5009151;28;20184;-92
2022/08/31 13:46:25;;;;;;;0.90;0.68;;;22.90;40.10;;;;;;5022719;28;20208;-93
2022/08/31 13:49:00;;;;;;;5.47;1.15;;;22.50;41.30;;;;;;5019514;28;20257;-90
2022/08/31 13:51:30;;;;;;;3.25;0.93;;;22.30;42.00;;;;;;5018507;28;20635;-91
2022/08/31 13:53:55;;;;;;;1.88;1.20;;;22.20;42.10;;;;;;5000011;28;20181;-90
2022/08/31 13:59:20;;;;;;;2.78;0.80;;;22.50;42.20;;;;;;5018802;28;20245;-91
2022/08/31 14:02:21;;;;;;;2.53;1.08;;;22.90;42.20;;;;;;5004353;28;20173;-91
2022/08/31 14:07:24;;;;;;;2.67;0.90;;;23.20;38.30;;;;;;5019112;28;20208;-91
2022/08/31 14:10:18;;;;;;;3.10;0.70;;;23.30;40.40;;;;;;5002872;28;20179;-91
2022/08/31 14:12:47;;;;;;;1.05;0.63;;;23.50;40.00;;;;;;5000734;28;20184;-92
2022/08/31 14:15:18;;;;;;;0.55;0.55;;;23.70;40.10;;;;;;5018403;28;20166;-90
2022/08/31 14:17:58;;;;;;;3.00;1.10;;;23.70;39.20;;;;;;5001278;28;20217;-90
2022/08/31 14:20:37;;;;;;;0.80;0.60;;;23.60;40.90;;;;;;5002722;28;20184;-91
2022/08/31 14:23:18;;;;;;;0.80;0.70;;;23.20;40.40;;;;;;5006009;28;20184;-92
2022/08/31 14:25:44;;;;;;;1.45;0.65;;;22.70;41.30;;;;;;5000599;28;20185;-90
2022/08/31 14:28:10;;;;;;;1.38;0.60;;;22.30;41.70;;;;;;5020074;28;20209;-92
2022/08/31 14:30:36;;;;;;;0.98;0.80;;;22.10;43.00;;;;;;5019147;28;20231;-92
2022/08/31 14:33:04;;;;;;;1.15;1.05;;;21.80;43.20;;;;;;5001605;28;20178;-92
2022/08/31 14:35:31;;;;;;;1.33;0.80;;;21.70;43.60;;;;;;5002185;28;20686;-92
2022/08/31 14:37:57;;;;;;;0.77;0.70;;;21.60;43.70;;;;;;5023740;28;20193;-92
2022/08/31 14:40:22;;;;;;;0.80;0.80;;;21.50;45.40;;;;;;5002949;28;20188;-92
2022/08/31 14:42:48;;;;;;;1.08;0.80;;;21.70;44.40;;;;;;5003553;28;20181;-92
2022/08/31 14:45:21;;;;;;;1.23;0.90;;;22.10;42.00;;;;;;5001811;28;20271;-92
2022/08/31 14:47:50;;;;;;;0.90;0.80;;;22.40;42.30;;;;;;5003685;28;20683;-92
2022/08/31 14:50:22;;;;;;;1.10;0.95;;;22.60;40.20;;;;;;5003623;28;20300;-92
2022/08/31 14:52:52;;;;;;;1.00;0.80;;;22.80;40.60;;;;;;5002369;28;20181;-93
2022/08/31 14:55:20;;;;;;;0.85;0.80;;;22.80;39.50;;;;;;5003813;28;20236;-92
2022/08/31 14:57:54;;;;;;;1.05;0.75;;;22.90;40.20;;;;;;5002384;28;20201;-92
2022/08/31 15:00:24;;;;;;;0.95;0.73;;;23.00;39.60;;;;;;5001836;28;20245;-92
2022/08/31 15:02:53;;;;;;;0.73;0.73;;;23.00;39.70;;;;;;5007047;28;20185;-92
2022/08/31 15:07:54;;;;;;;1.48;0.75;;;23.10;40.90;;;;;;5208593;23;20227;-90
2022/08/31 15:10:26;;;;;;;0.77;0.77;;;23.10;39.10;;;;;;5045335;28;20199;-92
2022/08/31 15:12:52;;;;;;;0.93;0.82;;;23.10;39.60;;;;;;5049543;28;20618;-90